Time;durP1;ratioP1;P1;durP2;ratioP2;P2;SDS_P1;SDS_P2;PMS_P1;PMS_P2;Temp;Humidity;BMP_temperature;BMP_pressure;BME280_temperature;BME280_humidity;BME280_pressure;Samples;Min_cycle;Max_cycle;Signal;HPM_P1;HPM_P2
2021/09/28 00:01:22;;;;;;;37.53;7.30;;;;;;;18.02;61.04;100767.84;5031326;28;20060;-66
2021/09/28 00:03:47;;;;;;;47.53;7.57;;;;;;;18.16;60.77;100754.06;5031173;28;20021;-69
2021/09/28 00:06:12;;;;;;;44.35;7.38;;;;;;;18.33;60.21;100754.22;5031656;28;20026;-69
2021/09/28 00:08:41;;;;;;;39.75;8.75;;;;;;;18.36;60.11;100751.63;5031563;28;20087;-66
2021/09/28 00:11:07;;;;;;;30.90;7.00;;;;;;;18.35;59.75;100760.34;5031425;28;20026;-70
2021/09/28 00:13:32;;;;;;;22.92;6.18;;;;;;;18.25;59.18;100752.38;5029900;28;20026;-72
2021/09/28 00:15:58;;;;;;;18.17;5.68;;;;;;;18.18;58.53;100754.94;5012349;28;20034;-68
2021/09/28 00:18:24;;;;;;;14.23;5.82;;;;;;;17.88;58.39;100738.94;5030925;28;20037;-67
2021/09/28 00:20:49;;;;;;;16.65;5.80;;;;;;;17.95;58.85;100769.50;5029010;28;20029;-67
2021/09/28 00:23:15;;;;;;;14.30;6.15;;;;;;;17.81;58.53;100770.16;5031488;28;20033;-69
2021/09/28 00:25:42;;;;;;;13.35;6.45;;;;;;;17.65;59.16;100769.13;5031131;28;20104;-67
2021/09/28 00:28:08;;;;;;;12.68;5.85;;;;;;;17.52;59.68;100776.78;5031329;28;20025;-68
2021/09/28 00:30:33;;;;;;;12.85;5.95;;;;;;;17.45;59.92;100777.56;5030606;28;20033;-71
2021/09/28 00:32:59;;;;;;;14.25;5.88;;;;;;;17.38;60.65;100788.75;5031137;28;20064;-68
2021/09/28 00:35:24;;;;;;;11.80;5.85;;;;;;;17.24;61.23;100792.03;5031069;28;20498;-66
2021/09/28 00:37:50;;;;;;;10.07;5.70;;;;;;;17.05;61.74;100762.19;5030445;28;20033;-67
2021/09/28 00:40:15;;;;;;;10.40;5.50;;;;;;;17.19;61.59;100790.25;5031110;28;20022;-70
2021/09/28 00:42:41;;;;;;;14.45;5.60;;;;;;;17.23;62.11;100785.06;5030889;28;20113;-67
2021/09/28 00:45:08;;;;;;;11.43;5.55;;;;;;;17.19;62.36;100792.84;5030624;28;20026;-69
2021/09/28 00:47:34;;;;;;;16.52;6.03;;;;;;;17.25;62.22;100783.38;5031057;28;20029;-68
2021/09/28 00:50:00;;;;;;;9.68;5.57;;;;;;;17.16;62.66;100780.63;5030909;28;20485;-69
2021/09/28 00:52:25;;;;;;;10.68;5.40;;;;;;;17.22;62.29;100777.22;5031122;28;20029;-70
2021/09/28 00:54:51;;;;;;;12.38;6.22;;;;;;;17.18;61.98;100739.78;5030836;28;20408;-70
2021/09/28 00:57:19;;;;;;;20.25;5.78;;;;;;;17.43;61.43;100771.44;5030924;28;20022;-68
2021/09/28 00:59:45;;;;;;;10.82;5.03;;;;;;;17.23;61.97;100732.88;5030528;28;20680;-68
2021/09/28 01:02:13;;;;;;;12.35;5.68;;;;;;;17.36;62.49;100775.69;5028364;28;20037;-69
2021/09/28 01:04:39;;;;;;;12.07;5.70;;;;;;;17.23;62.79;100773.75;5030696;28;20726;-67
2021/09/28 01:07:06;;;;;;;17.45;5.80;;;;;;;17.16;62.68;100778.03;5030578;28;20025;-69
2021/09/28 01:09:33;;;;;;;11.90;5.18;;;;;;;17.15;62.60;100781.47;5030594;28;20496;-70
2021/09/28 01:11:59;;;;;;;12.68;5.55;;;;;;;16.81;62.91;100744.44;5030422;28;20041;-69
2021/09/28 01:14:24;;;;;;;7.70;5.78;;;;;;;17.18;62.54;100778.03;5017382;28;20117;-72
2021/09/28 01:16:50;;;;;;;11.50;5.07;;;;;;;17.19;62.41;100778.06;5010461;28;20022;-69
2021/09/28 01:19:15;;;;;;;10.95;4.93;;;;;;;17.20;62.13;100774.59;5012929;28;20030;-70
2021/09/28 01:21:42;;;;;;;10.50;5.20;;;;;;;17.24;62.29;100784.22;5012803;28;20112;-68
2021/09/28 01:24:09;;;;;;;9.93;4.95;;;;;;;17.16;62.26;100767.59;5014157;28;20161;-69
2021/09/28 01:26:36;;;;;;;16.10;5.30;;;;;;;17.17;62.29;100756.31;5012074;28;20021;-67
2021/09/28 01:29:03;;;;;;;13.15;6.00;;;;;;;17.25;61.77;100749.44;5011892;28;20037;-71
2021/09/28 01:31:28;;;;;;;11.50;5.00;;;;;;;17.24;61.92;100760.72;5013422;28;20511;-66
2021/09/28 01:33:54;;;;;;;11.77;5.90;;;;;;;17.17;61.88;100758.91;5016443;28;20116;-66
2021/09/28 01:36:20;;;;;;;11.95;5.50;;;;;;;17.19;62.07;100751.97;5018469;28;20053;-67
2021/09/28 01:38:45;;;;;;;13.48;5.90;;;;;;;17.05;62.37;100746.56;5016080;28;20069;-66
2021/09/28 01:41:12;;;;;;;11.60;5.38;;;;;;;17.19;62.23;100751.97;5028796;28;20025;-72
2021/09/28 01:43:38;;;;;;;11.32;5.60;;;;;;;17.14;62.10;100727.53;5031273;28;20033;-68
2021/09/28 01:46:05;;;;;;;11.75;5.13;;;;;;;17.22;62.41;100746.81;5019952;28;20139;-71
2021/09/28 01:48:48;;;;;;;11.23;5.88;;;;;;;17.12;62.38;100743.19;5029819;28;20032;-71
2021/09/28 01:51:14;;;;;;;9.48;4.65;;;;;;;16.88;63.18;100738.44;5017736;28;20088;-70
2021/09/28 01:53:40;;;;;;;8.40;5.68;;;;;;;16.94;63.14;100746.38;5034169;28;20045;-70
2021/09/28 01:56:06;;;;;;;13.57;5.70;;;;;;;17.19;62.65;100746.75;5034052;28;20033;-70
2021/09/28 01:58:35;;;;;;;8.85;5.13;;;;;;;17.26;62.47;100748.59;5034005;28;20033;-70
2021/09/28 02:01:01;;;;;;;13.95;5.68;;;;;;;17.16;62.66;100751.94;5034046;28;20022;-70
2021/09/28 02:03:26;;;;;;;9.13;5.40;;;;;;;17.17;62.55;100745.88;5034175;28;20518;-69
2021/09/28 02:05:52;;;;;;;8.32;5.20;;;;;;;17.07;62.55;100725.69;5033980;28;20025;-73
2021/09/28 02:08:18;;;;;;;11.20;5.10;;;;;;;17.24;61.97;100750.28;5033782;28;20167;-71
2021/09/28 02:10:43;;;;;;;11.10;5.70;;;;;;;16.86;63.04;100752.31;5033821;28;20034;-71
2021/09/28 02:13:09;;;;;;;12.73;6.50;;;;;;;16.83;64.99;100740.09;5034254;28;20376;-71
2021/09/28 02:15:35;;;;;;;19.77;6.60;;;;;;;16.82;64.53;100705.34;5033737;28;20611;-71
2021/09/28 02:18:00;;;;;;;15.32;6.15;;;;;;;17.18;63.28;100744.13;5033459;28;20025;-73
2021/09/28 02:20:26;;;;;;;16.27;6.55;;;;;;;17.13;63.05;100723.19;5033776;28;20036;-70
2021/09/28 02:22:51;;;;;;;10.57;5.72;;;;;;;17.27;62.72;100739.91;5033529;28;20033;-71
2021/09/28 02:25:19;;;;;;;10.30;5.95;;;;;;;17.24;62.52;100734.63;5033343;28;20029;-70
2021/09/28 02:27:45;;;;;;;10.80;5.85;;;;;;;17.21;62.02;100721.56;5033575;28;20488;-71
2021/09/28 02:30:11;;;;;;;9.93;5.28;;;;;;;17.17;62.14;100725.00;5033406;28;20113;-71
2021/09/28 02:32:37;;;;;;;9.48;5.00;;;;;;;17.12;62.44;100718.81;5033383;28;20041;-70
2021/09/28 02:35:03;;;;;;;11.93;5.53;;;;;;;17.07;62.69;100712.66;5033267;28;20476;-70
2021/09/28 02:37:28;;;;;;;12.63;5.68;;;;;;;17.02;63.32;100723.00;5033349;28;20034;-69
2021/09/28 02:39:54;;;;;;;10.18;5.75;;;;;;;16.86;63.18;100694.94;5033328;28;20476;-70
2021/09/28 02:42:20;;;;;;;10.90;5.40;;;;;;;16.56;64.14;100688.41;5033403;28;20029;-70
2021/09/28 02:44:46;;;;;;;12.98;5.20;;;;;;;16.31;65.60;100704.53;5032992;28;20100;-70
2021/09/28 02:47:11;;;;;;;9.23;6.22;;;;;;;16.53;65.59;100733.53;5033033;28;20404;-70
2021/09/28 02:49:37;;;;;;;10.48;5.70;;;;;;;16.45;66.08;100719.50;5033100;28;20108;-71
2021/09/28 02:52:02;;;;;;;10.70;6.60;;;;;;;16.52;66.25;100734.38;5033198;28;20022;-70
2021/09/28 02:54:28;;;;;;;10.20;6.03;;;;;;;16.63;66.17;100729.34;5032839;28;20033;-70
2021/09/28 02:56:53;;;;;;;14.25;9.82;;;;;;;16.75;65.20;100720.88;5032808;28;20052;-70
2021/09/28 02:59:19;;;;;;;20.02;11.93;;;;;;;16.75;64.94;100715.66;5033205;28;20060;-71
2021/09/28 03:01:45;;;;;;;19.88;10.02;;;;;;;16.65;64.49;100702.47;5033126;28;20507;-70
2021/09/28 03:04:11;;;;;;;11.98;7.72;;;;;;;16.82;64.07;100723.59;5032828;28;20036;-70
2021/09/28 03:06:36;;;;;;;19.58;7.50;;;;;;;16.75;64.47;100731.28;5032884;28;20030;-70
2021/09/28 03:09:02;;;;;;;13.60;6.72;;;;;;;16.63;65.15;100726.75;5032818;28;20082;-70
2021/09/28 03:11:28;;;;;;;11.88;6.32;;;;;;;16.62;64.65;100723.28;5032772;28;20087;-70
2021/09/28 03:13:54;;;;;;;10.73;6.32;;;;;;;16.21;65.31;100728.63;5032657;28;20037;-70
2021/09/28 03:16:21;;;;;;;12.48;6.32;;;;;;;16.09;65.64;100726.69;5032716;28;20495;-70
2021/09/28 03:18:47;;;;;;;13.23;6.65;;;;;;;16.18;65.45;100728.59;5032481;28;20029;-70
2021/09/28 03:21:12;;;;;;;11.50;6.70;;;;;;;16.16;65.21;100722.47;5032026;28;20028;-70
2021/09/28 03:23:38;;;;;;;13.80;6.45;;;;;;;16.10;65.30;100731.06;5032696;28;20118;-70
2021/09/28 03:26:03;;;;;;;11.55;5.93;;;;;;;15.81;65.81;100715.75;5032910;28;20029;-70
2021/09/28 03:28:31;;;;;;;14.23;6.07;;;;;;;15.79;65.66;100719.16;5032380;28;20033;-70
2021/09/28 03:30:57;;;;;;;20.52;7.80;;;;;;;15.72;66.23;100738.97;5032299;28;20026;-70
2021/09/28 03:33:22;;;;;;;14.18;6.10;;;;;;;15.80;65.87;100745.22;5032275;28;20029;-69
2021/09/28 03:35:48;;;;;;;13.20;5.85;;;;;;;15.83;65.67;100744.44;5032198;28;20090;-70
2021/09/28 03:38:13;;;;;;;17.50;6.97;;;;;;;15.88;65.42;100734.97;5032241;28;20103;-70
2021/09/28 03:40:39;;;;;;;11.40;6.13;;;;;;;15.65;66.20;100751.00;5031923;28;20080;-70
2021/09/28 03:43:06;;;;;;;15.48;6.57;;;;;;;15.73;65.96;100753.75;5032382;28;20030;-70
2021/09/28 03:45:33;;;;;;;16.85;6.68;;;;;;;15.86;65.55;100749.69;5032035;28;20032;-71
2021/09/28 03:47:58;;;;;;;17.40;6.25;;;;;;;15.86;65.35;100734.06;5032038;28;20476;-70
2021/09/28 03:50:25;;;;;;;16.70;6.70;;;;;;;15.92;65.26;100744.59;5031479;28;20068;-72
2021/09/28 03:52:51;;;;;;;15.43;6.28;;;;;;;16.00;64.96;100743.03;5011823;28;20038;-74
2021/09/28 03:55:19;;;;;;;14.52;7.00;;;;;;;15.85;65.45;100737.53;5031247;28;20415;-70
2021/09/28 03:57:49;;;;;;;25.30;7.03;;;;;;;15.66;66.46;100749.25;5031006;28;20026;-70
2021/09/28 04:00:17;;;;;;;17.42;7.80;;;;;;;15.59;67.10;100750.88;5030579;28;20083;-70
2021/09/28 04:02:43;;;;;;;18.25;7.30;;;;;;;15.52;67.32;100749.84;5012595;28;20030;-71
2021/09/28 04:05:09;;;;;;;13.43;7.30;;;;;;;15.34;68.50;100728.66;5011284;28;20025;-71
2021/09/28 04:07:35;;;;;;;21.17;7.30;;;;;;;15.46;67.90;100741.91;5011281;28;20472;-71
2021/09/28 04:10:05;;;;;;;19.67;7.57;;;;;;;15.58;67.96;100746.50;5011555;28;20112;-72
2021/09/28 04:12:31;;;;;;;14.40;7.70;;;;;;;15.59;67.68;100735.25;5013131;28;20037;-69
2021/09/28 04:14:58;;;;;;;16.42;7.38;;;;;;;15.74;67.57;100741.59;5011073;28;20054;-69
2021/09/28 04:17:24;;;;;;;24.88;7.72;;;;;;;15.82;67.95;100748.75;5009448;28;20033;-69
2021/09/28 04:19:49;;;;;;;24.33;8.52;;;;;;;15.76;67.87;100748.59;5010773;28;20026;-69
2021/09/28 04:22:15;;;;;;;21.20;8.07;;;;;;;15.69;68.24;100758.00;5010626;28;20026;-70
2021/09/28 04:24:40;;;;;;;23.95;8.88;;;;;;;15.59;68.40;100745.66;5011085;28;20030;-70
2021/09/28 04:27:06;;;;;;;16.77;8.20;;;;;;;15.69;67.88;100751.94;5011554;28;20034;-70
2021/09/28 04:29:32;;;;;;;33.95;8.10;;;;;;;15.61;67.96;100753.50;5011074;28;20025;-73
2021/09/28 04:31:58;;;;;;;31.13;9.13;;;;;;;15.68;68.06;100760.59;5020591;28;20033;-70
2021/09/28 04:34:23;;;;;;;35.85;9.07;;;;;;;15.60;68.13;100759.53;5030485;28;20108;-69
2021/09/28 04:36:49;;;;;;;26.00;8.15;;;;;;;15.51;68.17;100766.31;5030413;28;20025;-70
2021/09/28 04:39:14;;;;;;;21.52;8.10;;;;;;;15.47;68.06;100761.00;5030617;28;20515;-69
2021/09/28 04:41:40;;;;;;;22.05;8.35;;;;;;;15.52;67.98;100755.03;5030605;28;20167;-69
2021/09/28 04:44:06;;;;;;;22.25;8.07;;;;;;;15.57;68.74;100759.47;5030579;28;20035;-70
2021/09/28 04:46:31;;;;;;;31.13;8.63;;;;;;;15.35;69.12;100772.00;5030365;28;20040;-69
2021/09/28 04:48:57;;;;;;;19.63;8.27;;;;;;;15.45;68.90;100768.78;5030645;28;20041;-70
2021/09/28 04:51:22;;;;;;;20.48;7.93;;;;;;;15.40;69.05;100766.91;4988528;28;1223957;-69
2021/09/28 04:53:48;;;;;;;22.42;8.40;;;;;;;15.35;70.05;100764.19;5031138;28;20041;-69
2021/09/28 04:56:14;;;;;;;20.20;7.75;;;;;;;15.41;70.12;100763.47;5031180;28;20057;-70
2021/09/28 04:58:39;;;;;;;21.27;7.45;;;;;;;15.43;70.48;100773.06;5030905;28;20040;-69
2021/09/28 05:01:05;;;;;;;17.00;7.57;;;;;;;15.53;70.15;100771.53;5030961;28;20029;-70
2021/09/28 05:03:31;;;;;;;18.55;7.47;;;;;;;15.42;71.04;100766.09;5030937;28;20041;-71
2021/09/28 05:05:56;;;;;;;23.02;7.90;;;;;;;15.58;69.96;100775.13;5033302;28;20025;-69
2021/09/28 05:08:22;;;;;;;20.42;7.22;;;;;;;15.76;69.62;100774.63;5016671;28;20041;-69
2021/09/28 05:10:47;;;;;;;20.85;8.13;;;;;;;15.78;69.77;100770.31;5035003;28;20404;-71
2021/09/28 05:13:14;;;;;;;22.10;7.93;;;;;;;15.80;70.12;100773.84;5034929;28;20033;-68
2021/09/28 05:15:39;;;;;;;44.00;11.82;;;;;;;15.76;70.29;100756.41;5034966;28;20458;-71
2021/09/28 05:18:05;;;;;;;66.38;14.45;;;;;;;15.83;70.31;100778.28;5034590;28;20029;-69
2021/09/28 05:20:32;;;;;;;81.28;15.80;;;;;;;15.82;70.29;100771.31;5034994;28;20091;-69
2021/09/28 05:22:58;;;;;;;35.08;10.20;;;;;;;15.85;70.22;100774.00;5034846;28;20030;-69
2021/09/28 05:25:26;;;;;;;17.67;7.43;;;;;;;15.78;70.11;100772.06;5034912;28;20017;-71
2021/09/28 05:27:51;;;;;;;18.30;7.00;;;;;;;15.83;70.95;100779.13;5034703;28;20072;-69
2021/09/28 05:30:17;;;;;;;18.00;6.45;;;;;;;15.72;71.36;100779.75;5034675;28;20057;-69
2021/09/28 05:32:42;;;;;;;23.00;8.43;;;;;;;15.42;71.79;100758.28;5034478;28;20154;-69
2021/09/28 05:35:09;;;;;;;32.72;9.73;;;;;;;15.60;72.26;100791.66;5034751;28;20025;-69
2021/09/28 05:37:35;;;;;;;20.92;7.65;;;;;;;15.58;72.19;100785.53;5034645;28;20090;-68
2021/09/28 05:40:02;;;;;;;20.42;8.15;;;;;;;15.54;72.36;100773.31;5034832;28;20427;-70
2021/09/28 05:42:28;;;;;;;19.63;7.32;;;;;;;15.73;72.52;100802.34;5034576;28;20159;-69
2021/09/28 05:44:53;;;;;;;15.35;7.30;;;;;;;15.80;72.31;100793.78;5034304;28;20108;-69
2021/09/28 05:47:19;;;;;;;22.35;7.57;;;;;;;15.84;73.01;100800.88;5034047;28;20033;-69
2021/09/28 05:49:44;;;;;;;17.15;7.20;;;;;;;15.85;72.85;100798.28;5034242;28;20049;-70
2021/09/28 05:52:12;;;;;;;17.35;7.40;;;;;;;15.86;72.44;100804.34;5034488;28;20041;-69
2021/09/28 05:54:47;;;;;;;19.08;6.68;;;;;;;15.87;72.47;100803.50;5034160;28;20052;-69
2021/09/28 05:57:14;;;;;;;21.00;8.15;;;;;;;16.01;73.56;100802.09;5034029;28;20029;-69
2021/09/28 05:59:41;;;;;;;13.25;6.70;;;;;;;16.09;72.23;100799.63;5033984;28;20553;-69
2021/09/28 06:02:07;;;;;;;13.35;6.60;;;;;;;16.23;72.56;100806.84;5033918;28;20108;-69
2021/09/28 06:04:34;;;;;;;14.38;6.60;;;;;;;16.39;72.49;100802.78;5034133;28;20492;-69
2021/09/28 06:07:00;;;;;;;15.65;7.28;;;;;;;16.47;73.35;100803.78;5034221;28;20021;-69
2021/09/28 06:09:26;;;;;;;15.02;7.53;;;;;;;16.61;72.30;100794.50;5034107;28;20033;-69
2021/09/28 06:11:52;;;;;;;13.52;6.63;;;;;;;16.79;71.61;100800.88;5033716;28;20416;-70
2021/09/28 06:14:18;;;;;;;15.05;7.07;;;;;;;16.88;72.55;100805.38;5033605;28;20120;-70
2021/09/28 06:16:43;;;;;;;19.73;6.82;;;;;;;17.01;72.00;100812.56;5033645;28;20021;-69
2021/09/28 06:19:09;;;;;;;11.57;6.75;;;;;;;17.13;72.05;100811.88;5033951;28;20061;-69
2021/09/28 06:21:34;;;;;;;10.38;5.93;;;;;;;17.15;72.06;100818.00;5033629;28;20025;-69
2021/09/28 06:24:00;;;;;;;12.32;6.30;;;;;;;17.22;72.77;100814.66;5033731;28;20037;-69
2021/09/28 06:26:25;;;;;;;11.30;6.20;;;;;;;17.38;71.78;100804.41;5033738;28;20079;-69
2021/09/28 06:28:51;;;;;;;15.93;6.22;;;;;;;17.35;72.08;100788.72;5033581;28;20048;-69
2021/09/28 06:31:16;;;;;;;10.38;5.90;;;;;;;17.44;71.63;100783.63;5032652;28;20022;-69
2021/09/28 06:33:42;;;;;;;14.00;6.85;;;;;;;17.72;71.94;100820.53;5033634;28;20550;-69
2021/09/28 06:36:07;;;;;;;19.17;7.25;;;;;;;17.71;72.86;100814.44;5033354;28;20021;-69
2021/09/28 06:38:33;;;;;;;17.30;6.88;;;;;;;17.78;71.87;100815.41;5033083;28;20029;-69
2021/09/28 06:40:58;;;;;;;18.42;7.00;;;;;;;17.95;72.23;100813.91;5033399;28;20021;-69
2021/09/28 06:43:24;;;;;;;22.50;8.27;;;;;;;18.17;71.76;100808.94;5033302;28;20061;-69
2021/09/28 06:45:50;;;;;;;22.15;8.45;;;;;;;18.09;70.21;100790.56;5033415;28;20026;-69
2021/09/28 06:48:18;;;;;;;20.45;7.80;;;;;;;18.25;70.20;100806.41;5033147;28;20423;-72
2021/09/28 06:50:44;;;;;;;18.50;7.15;;;;;;;18.47;68.80;100820.59;5032659;28;20049;-70
2021/09/28 06:53:09;;;;;;;19.83;7.28;;;;;;;18.34;69.91;100795.16;5033298;28;20029;-69
2021/09/28 06:55:38;;;;;;;18.00;7.45;;;;;;;18.53;69.36;100820.66;5033049;28;20104;-69
2021/09/28 06:58:04;;;;;;;15.27;6.68;;;;;;;18.81;68.65;100833.97;5032982;28;20017;-69
2021/09/28 07:00:35;;;;;;;18.20;7.03;;;;;;;19.04;67.73;100830.69;5029794;28;20022;-70
2021/09/28 07:03:01;;;;;;;17.27;7.32;;;;;;;19.13;67.56;100836.00;5013126;28;20056;-70
2021/09/28 07:05:27;;;;;;;19.23;7.22;;;;;;;19.15;66.58;100829.06;5013179;28;20381;-71
2021/09/28 07:07:52;;;;;;;24.65;7.47;;;;;;;19.34;66.60;100837.91;5013153;28;20033;-71
2021/09/28 07:10:18;;;;;;;29.20;7.85;;;;;;;19.44;65.86;100823.13;5013248;28;20026;-71
2021/09/28 07:12:43;;;;;;;22.02;7.43;;;;;;;19.66;65.36;100831.97;5024717;28;20039;-70
2021/09/28 07:15:10;;;;;;;25.02;7.30;;;;;;;19.67;66.05;100827.63;5024404;28;20105;-71
2021/09/28 07:17:36;;;;;;;31.45;8.25;;;;;;;19.78;67.47;100833.78;5022194;28;20127;-71
2021/09/28 07:20:02;;;;;;;26.58;7.90;;;;;;;19.83;64.76;100797.16;5023046;28;20014;-71
2021/09/28 07:22:28;;;;;;;21.88;8.18;;;;;;;20.08;64.41;100829.56;5022970;28;20032;-71
2021/09/28 07:24:55;;;;;;;23.67;8.60;;;;;;;20.18;64.33;100836.59;5022563;28;20030;-71
2021/09/28 07:27:22;;;;;;;13.55;7.22;;;;;;;20.23;64.38;100817.41;5020822;28;20037;-72
2021/09/28 07:29:47;;;;;;;15.25;7.40;;;;;;;20.31;64.22;100841.88;5022985;28;20104;-72
2021/09/28 07:32:14;;;;;;;14.80;7.30;;;;;;;20.22;64.15;100811.25;5022267;28;20117;-72
2021/09/28 07:34:41;;;;;;;17.73;7.40;;;;;;;20.52;65.66;100825.31;5002566;28;20046;-71
2021/09/28 07:37:07;;;;;;;15.98;7.72;;;;;;;20.59;64.85;100827.06;5021166;28;20500;-73
2021/09/28 07:39:32;;;;;;;15.15;7.13;;;;;;;20.81;62.62;100830.63;5021839;28;20036;-72
2021/09/28 07:41:58;;;;;;;12.20;7.47;;;;;;;20.90;63.17;100828.88;5022486;28;20026;-72
2021/09/28 07:44:24;;;;;;;17.38;7.30;;;;;;;20.93;62.43;100826.25;5021353;28;20060;-71
2021/09/28 07:46:51;;;;;;;16.23;7.53;;;;;;;21.00;62.84;100830.63;5037974;28;20033;-71
2021/09/28 07:49:16;;;;;;;13.48;6.78;;;;;;;21.24;61.19;100829.72;5021750;28;20032;-70
2021/09/28 07:51:42;;;;;;;10.02;6.40;;;;;;;21.30;59.20;100811.34;5022774;28;20049;-70
2021/09/28 07:54:07;;;;;;;15.07;6.88;;;;;;;21.52;59.76;100820.91;5021062;28;20021;-70
2021/09/28 07:56:33;;;;;;;11.07;6.47;;;;;;;21.52;57.97;100805.16;5022135;28;20036;-73
2021/09/28 07:58:59;;;;;;;16.33;6.78;;;;;;;21.62;58.33;100818.31;5020875;28;20404;-74
2021/09/28 08:01:25;;;;;;;11.88;6.57;;;;;;;21.50;56.64;100813.06;5020799;28;20108;-67
2021/09/28 08:03:51;;;;;;;15.13;6.65;;;;;;;21.58;58.08;100810.44;5022103;28;20156;-69
2021/09/28 08:06:17;;;;;;;11.60;6.85;;;;;;;21.55;58.58;100806.03;5019478;28;20025;-68
2021/09/28 08:08:42;;;;;;;11.32;6.80;;;;;;;21.52;58.68;100811.31;5027033;28;20021;-68
2021/09/28 08:11:08;;;;;;;15.02;7.07;;;;;;;21.55;58.77;100769.25;5022694;28;20029;-69
2021/09/28 08:13:34;;;;;;;18.40;7.45;;;;;;;22.00;59.19;100800.63;5022047;28;20022;-69
2021/09/28 08:16:00;;;;;;;10.57;6.05;;;;;;;22.09;57.12;100803.22;5021843;28;20032;-68
2021/09/28 08:18:25;;;;;;;7.72;5.40;;;;;;;21.97;56.33;100769.09;5020706;28;20033;-68
2021/09/28 08:20:51;;;;;;;11.10;5.88;;;;;;;22.20;55.31;100797.03;5021126;28;20037;-68
2021/09/28 08:23:17;;;;;;;8.95;5.03;;;;;;;21.96;54.96;100793.63;5022102;28;20101;-68
2021/09/28 08:26:00;;;;;;;10.85;5.70;;;;;;;22.13;54.25;100799.69;5021378;28;20082;-68
2021/09/28 08:31:10;;;;;;;10.07;5.85;;;;;;;21.92;54.01;100763.88;5023162;28;20095;-71
2021/09/28 08:33:37;;;;;;;11.68;6.00;;;;;;;22.37;55.34;100787.28;5027341;28;20028;-70
2021/09/28 08:36:05;;;;;;;11.40;6.15;;;;;;;22.63;53.46;100778.34;5020852;28;20105;-68
2021/09/28 08:38:31;;;;;;;11.88;6.72;;;;;;;22.81;54.62;100790.47;5020147;28;20030;-69
2021/09/28 08:40:59;;;;;;;10.48;6.10;;;;;;;23.04;52.15;100785.00;5021902;28;20028;-69
2021/09/28 08:43:25;;;;;;;10.73;6.10;;;;;;;22.98;51.26;100787.69;5020737;28;20075;-69
2021/09/28 08:45:50;;;;;;;12.00;5.72;;;;;;;22.87;52.31;100750.06;5020696;28;20033;-70
2021/09/28 08:48:17;;;;;;;8.85;6.03;;;;;;;23.06;52.98;100783.19;5021985;28;20033;-67
2021/09/28 08:50:47;;;;;;;8.85;6.30;;;;;;;23.22;53.73;100783.09;5020468;28;20523;-67
2021/09/28 08:53:15;;;;;;;11.27;7.00;;;;;;;22.87;52.64;100763.22;5020356;28;20025;-68
2021/09/28 08:55:40;;;;;;;10.10;6.10;;;;;;;23.04;53.05;100789.38;5020160;28;20026;-68
2021/09/28 08:58:16;;;;;;;10.77;6.28;;;;;;;23.20;52.05;100795.41;5020986;28;20167;-69
2021/09/28 09:00:43;;;;;;;8.63;5.88;;;;;;;23.29;51.81;100791.78;5020419;28;20056;-68
2021/09/28 09:03:31;;;;;;;11.82;6.35;;;;;;;23.10;53.83;100787.56;5020500;28;20060;-71
2021/09/28 09:05:59;;;;;;;14.98;7.20;;;;;;;22.91;53.79;100789.47;5021964;28;20033;-67
2021/09/28 09:08:29;;;;;;;12.73;6.97;;;;;;;22.78;54.30;100791.38;5022958;28;20032;-68
2021/09/28 09:11:01;;;;;;;14.75;6.88;;;;;;;22.81;53.37;100792.22;5029404;28;20037;-72
2021/09/28 09:13:36;;;;;;;12.02;5.78;;;;;;;22.74;53.56;100771.22;5030143;28;20025;-69
2021/09/28 09:16:02;;;;;;;13.02;6.05;;;;;;;22.85;54.38;100781.63;5030903;28;20025;-71
2021/09/28 09:18:27;;;;;;;10.38;6.25;;;;;;;22.32;54.67;100719.78;5012315;28;20049;-69
2021/09/28 09:20:53;;;;;;;13.43;5.90;;;;;;;22.53;54.06;100755.59;5026530;28;20034;-68
2021/09/28 09:23:27;;;;;;;9.07;6.00;;;;;;;22.54;53.18;100752.09;5022292;28;20032;-69
2021/09/28 09:26:07;;;;;;;10.52;6.25;;;;;;;22.39;53.72;100768.88;5021079;28;20030;-68
2021/09/28 09:28:54;;;;;;;9.00;6.10;;;;;;;22.31;53.57;100776.78;5021481;28;20022;-69
2021/09/28 09:31:34;;;;;;;10.63;6.43;;;;;;;22.16;53.26;100724.28;5026712;28;20090;-69
2021/09/28 09:34:08;;;;;;;;;;;;;;;22.61;53.15;100780.97;5027220;28;20033;-68
2021/09/28 09:36:34;;;;;;;17.00;6.75;;;;;;;22.70;52.76;100774.75;5030560;28;20303;-69
2021/09/28 09:39:03;;;;;;;12.00;6.57;;;;;;;22.91;52.31;100784.22;5030525;28;20025;-70
2021/09/28 09:41:30;;;;;;;12.55;6.57;;;;;;;22.99;52.25;100773.63;5030750;28;20108;-69
2021/09/28 09:44:14;;;;;;;12.57;6.30;;;;;;;23.11;52.25;100770.00;5030797;28;20030;-69
2021/09/28 09:46:48;;;;;;;20.42;7.50;;;;;;;23.29;52.90;100776.88;5030867;28;20029;-69
2021/09/28 09:49:16;;;;;;;9.00;5.68;;;;;;;23.39;51.24;100760.06;5030831;28;20030;-69
2021/09/28 09:51:44;;;;;;;18.42;7.00;;;;;;;23.53;52.67;100761.69;5032283;28;20176;-69
2021/09/28 09:54:12;;;;;;;13.55;6.28;;;;;;;23.58;51.16;100763.34;5032792;28;20025;-69
2021/09/28 09:56:44;;;;;;;11.52;6.60;;;;;;;23.69;49.59;100765.88;5027465;28;20104;-70
2021/09/28 09:59:12;;;;;;;16.63;6.70;;;;;;;23.78;50.27;100758.75;5015745;28;20033;-69
2021/09/28 10:01:38;;;;;;;9.88;6.22;;;;;;;23.95;48.75;100759.41;5030521;28;20065;-68
2021/09/28 10:04:08;;;;;;;10.90;6.55;;;;;;;23.65;49.88;100727.25;5034394;28;20183;-70
2021/09/28 10:06:34;;;;;;;14.45;7.03;;;;;;;24.00;49.93;100760.22;5034544;28;20079;-70
2021/09/28 10:09:01;;;;;;;11.65;6.25;;;;;;;24.20;48.25;100759.03;5034066;28;20035;-67
2021/09/28 10:11:32;;;;;;;13.15;5.57;;;;;;;24.37;47.61;100748.22;5033971;28;20032;-71
2021/09/28 10:13:58;;;;;;;8.15;5.47;;;;;;;24.27;49.24;100747.50;5033906;28;20035;-67
2021/09/28 10:16:42;;;;;;;16.80;6.07;;;;;;;24.15;47.30;100729.22;5032375;28;20029;-69
2021/09/28 10:19:26;;;;;;;8.18;5.25;;;;;;;24.26;47.11;100752.81;5023870;28;20029;-67
2021/09/28 10:21:52;;;;;;;10.07;6.13;;;;;;;24.23;46.80;100737.91;5030510;28;20157;-72
2021/09/28 10:24:17;;;;;;;9.25;5.82;;;;;;;24.04;46.73;100754.00;5023096;28;20526;-69
2021/09/28 10:27:03;;;;;;;12.57;5.55;;;;;;;23.94;46.91;100748.88;5022291;28;20157;-70
2021/09/28 10:29:41;;;;;;;19.70;6.70;;;;;;;24.08;47.16;100739.00;5000696;28;20042;-70
2021/09/28 10:32:24;;;;;;;10.43;5.80;;;;;;;24.34;46.74;100754.44;5000513;28;20038;-71
2021/09/28 10:35:08;;;;;;;10.30;5.75;;;;;;;23.78;47.69;100727.97;4996002;28;20030;-68
2021/09/28 10:37:42;;;;;;;15.27;7.15;;;;;;;23.94;46.83;100751.50;5003291;28;20031;-69
2021/09/28 10:40:09;;;;;;;7.35;5.47;;;;;;;23.73;47.10;100749.09;5002996;28;20038;-67
2021/09/28 10:42:52;;;;;;;11.27;5.80;;;;;;;23.68;46.83;100750.06;5000375;28;20038;-68
2021/09/28 10:45:19;;;;;;;21.48;8.55;;;;;;;23.73;46.96;100749.09;5001906;28;20081;-69
2021/09/28 10:47:52;;;;;;;15.82;8.05;;;;;;;23.97;46.58;100735.66;4996779;28;20034;-67
2021/09/28 10:50:32;;;;;;;23.98;8.50;;;;;;;24.32;45.46;100743.00;4995708;28;20097;-71
2021/09/28 10:53:01;;;;;;;14.63;6.70;;;;;;;24.53;44.34;100752.34;4999197;28;20527;-69
2021/09/28 10:55:39;;;;;;;20.50;7.47;;;;;;;24.72;45.67;100746.78;5005479;28;20125;-67
2021/09/28 10:58:09;;;;;;;12.20;6.57;;;;;;;24.94;43.91;100734.09;5000822;28;20030;-70
2021/09/28 11:00:38;;;;;;;11.05;6.18;;;;;;;24.76;44.28;100750.25;4997870;28;20128;-71
2021/09/28 11:03:03;;;;;;;6.60;5.32;;;;;;;24.61;43.08;100744.34;5000937;28;20432;-71
2021/09/28 11:05:32;;;;;;;9.35;5.82;;;;;;;24.60;44.19;100741.69;4998029;28;20026;-70
2021/09/28 11:07:59;;;;;;;18.60;6.68;;;;;;;24.72;43.76;100736.22;5028229;28;20029;-69
2021/09/28 11:10:25;;;;;;;15.95;6.63;;;;;;;24.86;44.12;100731.59;5031406;28;20025;-70
2021/09/28 11:12:51;;;;;;;8.43;6.03;;;;;;;25.01;43.05;100743.66;5031696;28;20037;-70
2021/09/28 11:15:22;;;;;;;12.10;6.40;;;;;;;25.01;42.94;100709.31;5026461;28;20032;-70
2021/09/28 11:17:48;;;;;;;8.32;6.13;;;;;;;25.25;41.87;100722.94;5022508;28;20510;-69
2021/09/28 11:20:25;;;;;;;21.02;9.40;;;;;;;25.20;42.58;100727.44;5030868;28;20488;-72